Time;durP1;ratioP1;P1;durP2;ratioP2;P2;SDS_P1;SDS_P2;PMS_P1;PMS_P2;Temp;Humidity;BMP_temperature;BMP_pressure;BME280_temperature;BME280_humidity;BME280_pressure;Samples;Min_cycle;Max_cycle;Signal;HPM_P1;HPM_P2
2024/01/10 00:02:05;;;;;;;0.20;0.20;;;;;;;-6.66;64.42;97480.66;6135442;23;20481;-76
2024/01/10 00:04:51;;;;;;;0.20;0.20;;;;;;;-6.68;63.92;97475.59;6136238;23;20021;-75
2024/01/10 00:07:37;;;;;;;0.20;0.20;;;;;;;-6.62;64.65;97482.91;6136357;23;20025;-75
2024/01/10 00:10:23;;;;;;;0.20;0.20;;;;;;;-6.68;65.13;97472.16;6136130;23;20025;-74
2024/01/10 00:13:09;;;;;;;0.20;0.20;;;;;;;-6.63;64.63;97478.66;6136658;23;20376;-74
2024/01/10 00:15:55;;;;;;;0.20;0.20;;;;;;;-6.71;66.21;97478.41;6136357;23;20037;-75
2024/01/10 00:18:41;;;;;;;0.20;0.20;;;;;;;-6.68;66.24;97469.56;6136506;23;20049;-75
2024/01/10 00:21:27;;;;;;;0.25;0.25;;;;;;;-6.62;64.96;97463.84;6136317;23;20032;-74
2024/01/10 00:24:13;;;;;;;0.30;0.30;;;;;;;-6.62;65.16;97469.88;6137390;23;20076;-74
2024/01/10 00:26:59;;;;;;;0.20;0.20;;;;;;;-6.59;64.09;97467.06;6135527;23;20022;-74
2024/01/10 00:29:45;;;;;;;0.20;0.20;;;;;;;-6.58;63.09;97458.31;6137112;23;20052;-76
2024/01/10 00:32:31;;;;;;;0.20;0.20;;;;;;;-6.56;62.72;97453.81;6134589;23;20100;-74
2024/01/10 00:35:17;;;;;;;0.20;0.20;;;;;;;-6.53;61.82;97443.16;6136438;23;20056;-74
2024/01/10 00:38:03;;;;;;;0.20;0.20;;;;;;;-6.56;61.90;97440.78;6136187;23;20021;-77
2024/01/10 00:40:49;;;;;;;0.20;0.20;;;;;;;-6.75;61.78;97424.94;6136995;23;20025;-73
2024/01/10 00:43:35;;;;;;;0.20;0.20;;;;;;;-6.70;62.57;97441.00;6135669;23;20476;-77
2024/01/10 00:46:20;;;;;;;0.20;0.20;;;;;;;-6.68;61.26;97448.72;6137785;23;20396;-74
2024/01/10 00:49:06;;;;;;;0.20;0.20;;;;;;;-6.64;60.51;97437.13;6136881;23;20022;-75
2024/01/10 00:51:52;;;;;;;0.20;0.20;;;;;;;-6.61;59.94;97429.91;6135898;23;20029;-74
2024/01/10 00:54:38;;;;;;;0.20;0.20;;;;;;;-6.59;59.13;97421.97;6137488;23;20025;-76
2024/01/10 00:57:24;;;;;;;0.20;0.20;;;;;;;-6.56;58.89;97429.53;6136683;23;20517;-75
2024/01/10 01:00:10;;;;;;;0.20;0.20;;;;;;;-6.50;58.51;97426.47;6137204;23;20025;-75
2024/01/10 01:02:56;;;;;;;0.20;0.20;;;;;;;-6.48;56.14;97407.16;6135342;23;20052;-74
2024/01/10 01:05:42;;;;;;;0.20;0.20;;;;;;;-6.40;55.75;97426.56;6136832;23;20029;-77
2024/01/10 01:08:28;;;;;;;0.20;0.20;;;;;;;-6.41;54.77;97414.50;6138531;23;20026;-76
2024/01/10 01:11:14;;;;;;;0.20;0.20;;;;;;;-6.51;54.55;97420.44;6138790;23;20733;-74
2024/01/10 01:14:00;;;;;;;0.20;0.20;;;;;;;-6.49;53.78;97423.75;6137547;23;20021;-76
2024/01/10 01:16:46;;;;;;;0.20;0.20;;;;;;;-6.49;53.85;97422.91;6137650;23;20022;-76
2024/01/10 01:19:32;;;;;;;0.20;0.20;;;;;;;-6.53;53.79;97413.69;6137215;23;20096;-75
2024/01/10 01:22:17;;;;;;;0.20;0.20;;;;;;;-6.52;53.52;97405.75;6134861;23;20471;-75
2024/01/10 01:25:04;;;;;;;0.20;0.20;;;;;;;-6.49;54.26;97413.31;6138482;23;20021;-74
2024/01/10 01:27:50;;;;;;;0.25;0.25;;;;;;;-6.48;53.68;97412.38;6137193;23;20389;-75
2024/01/10 01:30:36;;;;;;;0.10;0.10;;;;;;;-6.47;52.89;97408.81;6136894;23;20033;-75
2024/01/10 01:33:22;;;;;;;0.20;0.20;;;;;;;-6.50;52.72;97401.25;6137197;23;20064;-75
2024/01/10 01:36:08;;;;;;;0.20;0.20;;;;;;;-6.42;52.72;97420.66;6136294;23;20112;-74
2024/01/10 01:38:53;;;;;;;0.20;0.20;;;;;;;-6.46;52.72;97412.25;6137256;23;20460;-74
2024/01/10 01:41:40;;;;;;;0.20;0.20;;;;;;;-6.47;52.88;97405.38;6138510;23;20369;-75
2024/01/10 01:44:26;;;;;;;0.20;0.20;;;;;;;-6.49;53.83;97404.69;6138766;23;20025;-75
2024/01/10 01:47:11;;;;;;;0.20;0.20;;;;;;;-6.44;52.78;97406.94;6137848;23;20026;-75
2024/01/10 01:49:57;;;;;;;0.20;0.20;;;;;;;-6.44;52.93;97414.75;6137002;23;20029;-73
2024/01/10 01:52:44;;;;;;;0.20;0.20;;;;;;;-6.55;53.50;97405.97;6137871;23;20034;-77
2024/01/10 01:55:30;;;;;;;0.20;0.20;;;;;;;-6.56;54.51;97419.94;6138871;23;20104;-74
2024/01/10 01:58:16;;;;;;;0.20;0.20;;;;;;;-6.59;54.75;97427.19;6137096;23;20803;-74
2024/01/10 02:01:03;;;;;;;0.20;0.20;;;;;;;-6.60;56.28;97426.34;6137304;23;20604;-73
2024/01/10 02:03:49;;;;;;;0.20;0.20;;;;;;;-6.68;57.45;97423.50;6137729;23;20116;-74
2024/01/10 02:06:35;;;;;;;0.20;0.20;;;;;;;-6.68;58.63;97426.13;6137606;23;20072;-75
2024/01/10 02:09:21;;;;;;;0.20;0.20;;;;;;;-6.76;59.43;97418.06;6137822;23;20022;-75
2024/01/10 02:12:07;;;;;;;0.20;0.20;;;;;;;-6.80;60.07;97419.25;6137270;23;20160;-76
2024/01/10 02:14:53;;;;;;;0.20;0.20;;;;;;;-6.88;61.67;97412.00;6138286;23;20030;-75
2024/01/10 02:17:39;;;;;;;0.20;0.20;;;;;;;-6.83;62.36;97414.28;6136671;23;20139;-73
2024/01/10 02:20:24;;;;;;;0.20;0.20;;;;;;;-6.82;63.97;97415.94;6137464;23;20029;-76
2024/01/10 02:23:10;;;;;;;0.20;0.20;;;;;;;-6.83;63.71;97409.91;6137897;23;20026;-74
2024/01/10 02:25:57;;;;;;;0.20;0.20;;;;;;;-6.84;64.57;97407.41;6138594;23;20100;-73
2024/01/10 02:28:42;;;;;;;0.20;0.20;;;;;;;-6.81;64.67;97400.19;6136520;23;20097;-74
2024/01/10 02:31:28;;;;;;;0.20;0.20;;;;;;;-6.78;64.22;97404.31;6137500;23;20018;-73
2024/01/10 02:34:14;;;;;;;0.20;0.20;;;;;;;-6.76;63.45;97405.06;6138152;23;20037;-74
2024/01/10 02:37:00;;;;;;;0.20;0.20;;;;;;;-6.77;64.84;97408.56;6136560;23;20558;-74
2024/01/10 02:39:46;;;;;;;0.20;0.20;;;;;;;-6.75;65.13;97406.72;6137573;23;20052;-75
2024/01/10 02:42:32;;;;;;;0.20;0.20;;;;;;;-6.78;65.29;97394.72;6136832;23;20036;-74
2024/01/10 02:45:18;;;;;;;0.20;0.20;;;;;;;-6.78;64.99;97399.13;6138067;23;20537;-75
2024/01/10 02:48:04;;;;;;;0.20;0.20;;;;;;;-6.80;66.31;97395.81;6136795;23;20045;-75
2024/01/10 02:50:50;;;;;;;0.20;0.20;;;;;;;-6.87;67.03;97392.00;6135938;23;20031;-74
2024/01/10 02:53:36;;;;;;;0.20;0.20;;;;;;;-6.88;67.72;97390.38;6136631;23;20072;-76
2024/01/10 02:56:22;;;;;;;0.20;0.20;;;;;;;-6.95;68.24;97389.19;6136852;23;20029;-75
2024/01/10 02:59:08;;;;;;;0.20;0.20;;;;;;;-6.90;67.43;97392.25;6135148;23;20108;-77
2024/01/10 03:01:53;;;;;;;0.25;0.25;;;;;;;-6.89;66.56;97399.13;6136058;23;20677;-75
2024/01/10 03:04:40;;;;;;;0.20;0.20;;;;;;;-6.89;68.96;97396.53;6137263;23;20021;-74
2024/01/10 03:07:26;;;;;;;0.20;0.20;;;;;;;-6.93;68.82;97395.09;6136430;23;20722;-75
2024/01/10 03:10:11;;;;;;;0.20;0.20;;;;;;;-6.96;69.10;97401.34;6138502;23;20028;-76
2024/01/10 03:12:57;;;;;;;0.10;0.10;;;;;;;-6.95;69.16;97389.19;6136579;23;20519;-75
2024/01/10 03:15:43;;;;;;;0.20;0.20;;;;;;;-6.99;69.58;97395.56;6136842;23;20728;-77
2024/01/10 03:18:31;;;;;;;0.20;0.20;;;;;;;-7.09;71.66;97385.84;6137946;23;20029;-75
2024/01/10 03:21:22;;;;;;;0.20;0.20;;;;;;;-7.13;72.78;97391.41;6136191;23;20524;-77
2024/01/10 03:24:08;;;;;;;0.20;0.20;;;;;;;-7.13;73.48;97378.41;6137211;23;20047;-74
2024/01/10 03:26:54;;;;;;;0.10;0.10;;;;;;;-7.13;73.70;97381.00;6136944;23;20112;-76
2024/01/10 03:29:40;;;;;;;0.20;0.20;;;;;;;-7.22;74.40;97381.69;6136446;23;20028;-74
2024/01/10 03:32:26;;;;;;;0.10;0.10;;;;;;;-7.23;76.24;97383.47;6136005;23;20051;-76
2024/01/10 03:35:12;;;;;;;0.10;0.10;;;;;;;-7.26;75.67;97375.06;6137078;23;20036;-75
2024/01/10 03:37:57;;;;;;;0.10;0.10;;;;;;;-7.29;78.02;97386.53;6136705;23;20104;-76
2024/01/10 03:40:43;;;;;;;0.20;0.20;;;;;;;-7.31;75.62;97378.03;6135420;23;20104;-77
2024/01/10 03:43:29;;;;;;;0.20;0.20;;;;;;;-7.33;75.43;97362.50;6136067;23;20312;-75
2024/01/10 03:46:15;;;;;;;0.20;0.20;;;;;;;-7.18;76.30;97381.34;6137691;23;20092;-74
2024/01/10 03:49:01;;;;;;;0.20;0.20;;;;;;;-7.20;76.58;97369.41;6134528;23;20064;-75
2024/01/10 03:51:47;;;;;;;0.20;0.20;;;;;;;-7.20;77.04;97380.63;6136583;23;20918;-76
2024/01/10 03:54:33;;;;;;;0.20;0.20;;;;;;;-7.19;75.76;97382.28;6137236;23;20124;-76
2024/01/10 03:57:19;;;;;;;0.20;0.20;;;;;;;-7.16;76.48;97384.69;6136502;23;20028;-76
2024/01/10 04:00:09;;;;;;;0.20;0.20;;;;;;;-7.17;76.49;97388.19;6137166;23;20032;-75
2024/01/10 04:02:55;;;;;;;0.17;0.17;;;;;;;-7.24;77.14;97389.59;6135388;23;20100;-76
2024/01/10 04:05:41;;;;;;;0.20;0.20;;;;;;;-7.20;78.29;97390.22;6136613;23;20025;-75
2024/01/10 04:08:27;;;;;;;0.10;0.10;;;;;;;-7.17;79.11;97382.16;6137627;23;20112;-74
2024/01/10 04:11:13;;;;;;;0.20;0.20;;;;;;;-7.24;78.74;97384.41;6137590;23;20082;-75
2024/01/10 04:13:59;;;;;;;0.20;0.20;;;;;;;-7.17;78.62;97383.00;6135508;23;20025;-77
2024/01/10 04:16:45;;;;;;;0.20;0.20;;;;;;;-7.20;79.67;97395.41;6136504;23;20644;-77
2024/01/10 04:19:30;;;;;;;0.30;0.30;;;;;;;-7.23;80.07;97396.47;6136478;23;20044;-76
2024/01/10 04:22:16;;;;;;;0.20;0.20;;;;;;;-7.21;79.83;97384.19;6135445;23;20029;-75
2024/01/10 04:25:06;;;;;;;0.20;0.20;;;;;;;-7.23;80.63;97399.09;6136675;23;20021;-74
2024/01/10 04:27:51;;;;;;;0.20;0.20;;;;;;;-7.29;81.39;97402.13;6133627;23;20653;-73
2024/01/10 04:30:37;;;;;;;0.20;0.20;;;;;;;-7.39;83.38;97380.34;6135939;23;20017;-73
2024/01/10 04:33:23;;;;;;;0.15;0.15;;;;;;;-7.38;84.68;97392.44;6134916;23;20053;-74
2024/01/10 04:36:09;;;;;;;0.30;0.30;;;;;;;-7.39;86.24;97389.00;6135539;23;20101;-74
2024/01/10 04:38:55;;;;;;;0.20;0.20;;;;;;;-7.36;87.07;97406.13;6136973;23;20025;-75
2024/01/10 04:41:41;;;;;;;0.20;0.20;;;;;;;-7.41;86.81;97398.66;6138539;23;20713;-74
2024/01/10 04:44:27;;;;;;;0.20;0.20;;;;;;;-7.45;88.45;97399.03;6140343;23;20021;-75
2024/01/10 04:47:12;;;;;;;0.20;0.20;;;;;;;-7.54;89.07;97404.91;6141225;23;20025;-75
2024/01/10 04:49:58;;;;;;;0.20;0.20;;;;;;;-7.54;89.91;97399.72;6139944;23;20112;-74
2024/01/10 04:52:44;;;;;;;0.20;0.20;;;;;;;-7.53;89.57;97399.59;6139536;23;20263;-76
2024/01/10 04:55:30;;;;;;;0.20;0.20;;;;;;;-7.52;91.54;97393.44;6139243;23;20021;-73
2024/01/10 04:58:16;;;;;;;0.20;0.20;;;;;;;-7.43;89.73;97394.53;6138219;23;20367;-74
2024/01/10 05:01:02;;;;;;;0.20;0.20;;;;;;;-7.52;91.08;97400.41;6137849;23;20068;-73
2024/01/10 05:03:48;;;;;;;0.20;0.20;;;;;;;-7.64;91.46;97384.78;6141020;23;20360;-74
2024/01/10 05:06:34;;;;;;;0.20;0.20;;;;;;;-7.59;92.31;97390.47;6140953;23;20456;-74
2024/01/10 05:09:19;;;;;;;0.10;0.10;;;;;;;-7.54;93.13;97389.31;6139717;23;20025;-74
2024/01/10 05:12:06;;;;;;;0.10;0.10;;;;;;;-7.54;94.25;97397.13;6140946;23;20035;-74
2024/01/10 05:14:52;;;;;;;0.13;0.13;;;;;;;-7.56;94.83;97392.00;6141004;23;20031;-74
2024/01/10 05:17:38;;;;;;;0.20;0.20;;;;;;;-7.59;96.02;97387.88;6140086;23;20028;-74
2024/01/10 05:20:23;;;;;;;0.20;0.20;;;;;;;-7.53;95.55;97389.19;6140423;23;20022;-75
2024/01/10 05:23:09;;;;;;;0.20;0.20;;;;;;;-7.60;96.30;97383.63;6140248;23;20093;-75
2024/01/10 05:25:56;;;;;;;0.20;0.20;;;;;;;-7.54;95.83;97397.94;6140968;23;20128;-74
2024/01/10 05:28:42;;;;;;;0.20;0.20;;;;;;;-7.55;96.96;97392.81;6139570;23;20621;-76
2024/01/10 05:31:28;;;;;;;0.20;0.20;;;;;;;-7.57;97.83;97390.34;6139273;23;20064;-76
2024/01/10 05:34:14;;;;;;;0.20;0.20;;;;;;;-7.46;97.64;97390.41;6140941;23;20444;-75
2024/01/10 05:36:59;;;;;;;0.20;0.20;;;;;;;-7.41;97.27;97393.47;6139295;23;20032;-74
2024/01/10 05:39:45;;;;;;;0.20;0.20;;;;;;;-7.34;97.50;97392.06;6140186;23;20550;-75
2024/01/10 05:42:32;;;;;;;0.20;0.20;;;;;;;-7.36;99.86;97398.34;6140372;23;20485;-74
2024/01/10 05:45:18;;;;;;;0.15;0.15;;;;;;;-7.44;100.00;97392.88;6140627;23;20079;-74
2024/01/10 05:48:04;;;;;;;0.20;0.20;;;;;;;-7.47;100.00;97399.16;6139849;23;20538;-75
2024/01/10 05:50:50;;;;;;;0.20;0.20;;;;;;;-7.58;100.00;97402.53;6140321;23;20091;-74
2024/01/10 05:53:36;;;;;;;0.20;0.20;;;;;;;-7.65;100.00;97395.28;6138232;23;20025;-74
2024/01/10 05:56:23;;;;;;;0.20;0.20;;;;;;;-7.64;100.00;97391.75;6140757;23;20072;-74
2024/01/10 05:59:11;;;;;;;0.20;0.20;;;;;;;-7.76;100.00;97385.69;6140558;23;20813;-74
2024/01/10 06:01:58;;;;;;;0.20;0.20;;;;;;;-7.80;100.00;97384.25;6139633;23;20029;-75
2024/01/10 06:04:44;;;;;;;0.20;0.20;;;;;;;-7.98;100.00;97383.81;6140982;23;20457;-75
2024/01/10 06:07:30;;;;;;;0.20;0.20;;;;;;;-7.91;100.00;97384.22;6139663;23;20487;-75
2024/01/10 06:10:17;;;;;;;0.15;0.15;;;;;;;-7.95;100.00;97387.94;6140204;23;20365;-76
2024/01/10 06:13:03;;;;;;;0.20;0.20;;;;;;;-7.89;100.00;97371.91;6141158;23;20025;-74
2024/01/10 06:15:50;;;;;;;0.17;0.17;;;;;;;-7.96;100.00;97370.72;6140718;23;20326;-76
2024/01/10 06:18:36;;;;;;;0.20;0.20;;;;;;;-7.94;100.00;97371.41;6139833;23;20025;-75
2024/01/10 06:21:21;;;;;;;0.20;0.20;;;;;;;-7.92;100.00;97372.97;6139662;23;20025;-74
2024/01/10 06:24:08;;;;;;;0.20;0.20;;;;;;;-7.90;100.00;97370.28;6141003;23;20448;-74
2024/01/10 06:26:53;;;;;;;0.20;0.20;;;;;;;-7.97;100.00;97374.25;6140220;23;20076;-74
2024/01/10 06:29:39;;;;;;;0.20;0.20;;;;;;;-7.96;100.00;97387.13;6140155;23;20508;-76
2024/01/10 06:32:25;;;;;;;0.20;0.20;;;;;;;-7.90;100.00;97381.50;6139570;23;20044;-77
2024/01/10 06:35:11;;;;;;;0.20;0.20;;;;;;;-7.93;100.00;97378.31;6140679;23;20025;-77
2024/01/10 06:37:57;;;;;;;0.20;0.20;;;;;;;-8.07;100.00;97388.84;6140187;23;20021;-75
2024/01/10 06:40:44;;;;;;;0.20;0.20;;;;;;;-8.18;100.00;97385.25;6140257;23;20021;-75
2024/01/10 06:43:30;;;;;;;0.20;0.20;;;;;;;-8.16;100.00;97382.56;6140020;23;20033;-76
2024/01/10 06:46:16;;;;;;;0.20;0.20;;;;;;;-8.02;100.00;97381.53;6141125;23;20103;-77
2024/01/10 06:49:02;;;;;;;0.20;0.20;;;;;;;-7.93;100.00;97386.09;6139268;23;20018;-77
2024/01/10 06:51:48;;;;;;;0.20;0.20;;;;;;;-7.87;100.00;97375.22;6139953;23;20089;-76
2024/01/10 06:54:35;;;;;;;0.20;0.20;;;;;;;-7.90;100.00;97371.09;6139816;23;20076;-76
2024/01/10 06:57:20;;;;;;;0.20;0.20;;;;;;;-7.86;100.00;97380.34;6139270;23;20029;-76
2024/01/10 07:00:10;;;;;;;0.20;0.20;;;;;;;-7.88;100.00;97384.78;6138854;23;20084;-77
2024/01/10 07:02:56;;;;;;;0.20;0.20;;;;;;;-7.89;100.00;97390.13;6138151;23;20723;-75
2024/01/10 07:05:44;;;;;;;0.20;0.20;;;;;;;-7.87;100.00;97393.41;6140835;23;20538;-77
2024/01/10 07:08:30;;;;;;;0.20;0.20;;;;;;;-7.85;100.00;97399.34;6137418;23;20053;-75
2024/01/10 07:11:17;;;;;;;0.20;0.20;;;;;;;-7.79;100.00;97404.09;6138743;23;20025;-77
2024/01/10 07:14:03;;;;;;;0.20;0.20;;;;;;;-7.71;100.00;97400.94;6138945;23;20021;-74
2024/01/10 07:16:49;;;;;;;0.20;0.20;;;;;;;-7.65;100.00;97398.72;6139080;23;20029;-74
2024/01/10 07:19:35;;;;;;;0.20;0.20;;;;;;;-7.66;100.00;97397.06;6139387;23;20100;-74
2024/01/10 07:22:20;;;;;;;0.20;0.20;;;;;;;-7.68;100.00;97401.53;6138305;23;20828;-74
2024/01/10 07:25:14;;;;;;;0.20;0.20;;;;;;;-7.68;100.00;97409.34;6139375;23;20746;-75
2024/01/10 07:28:00;;;;;;;0.20;0.20;;;;;;;-7.79;100.00;97404.09;6138362;23;20028;-76
2024/01/10 07:30:46;;;;;;;0.20;0.20;;;;;;;-7.73;100.00;97413.22;6139107;23;20022;-74
2024/01/10 07:33:32;;;;;;;0.13;0.13;;;;;;;-7.71;100.00;97417.34;6138559;23;20034;-74
2024/01/10 07:36:18;;;;;;;0.20;0.20;;;;;;;-7.83;100.00;97431.25;6138739;23;20160;-75
2024/01/10 07:39:04;;;;;;;0.20;0.20;;;;;;;-7.78;100.00;97426.56;6138637;23;20021;-73
2024/01/10 07:41:50;;;;;;;0.20;0.20;;;;;;;-7.73;100.00;97431.41;6138787;23;20352;-73
2024/01/10 07:44:36;;;;;;;0.20;0.20;;;;;;;-7.65;100.00;97429.09;6139106;23;20064;-74
2024/01/10 07:47:21;;;;;;;0.20;0.20;;;;;;;-7.69;100.00;97430.25;6137697;23;20021;-74
2024/01/10 07:50:09;;;;;;;0.15;0.15;;;;;;;-7.62;100.00;97432.31;6139347;23;20032;-75
2024/01/10 07:52:55;;;;;;;0.20;0.20;;;;;;;-7.61;100.00;97433.13;6137714;23;20029;-75
2024/01/10 07:55:41;;;;;;;0.10;0.10;;;;;;;-7.77;100.00;97437.78;6138073;23;20113;-75
2024/01/10 07:58:28;;;;;;;0.20;0.20;;;;;;;-7.71;100.00;97440.75;6137859;23;20108;-75
2024/01/10 08:01:15;;;;;;;0.20;0.20;;;;;;;-7.63;100.00;97446.22;6138495;23;20023;-74
2024/01/10 08:04:01;;;;;;;0.20;0.20;;;;;;;-7.66;100.00;97443.84;6139843;23;20025;-74
2024/01/10 08:06:46;;;;;;;0.20;0.20;;;;;;;-7.80;100.00;97445.78;6137906;23;20033;-74
2024/01/10 08:09:32;;;;;;;0.20;0.20;;;;;;;-7.78;100.00;97451.69;6139531;23;20021;-73
2024/01/10 08:12:18;;;;;;;0.20;0.20;;;;;;;-7.75;100.00;97452.31;6138813;23;20025;-73
2024/01/10 08:15:06;;;;;;;0.10;0.10;;;;;;;-7.69;100.00;97457.06;6138818;23;20025;-74
2024/01/10 08:17:52;;;;;;;0.20;0.20;;;;;;;-7.64;100.00;97447.16;6139225;23;20687;-74
2024/01/10 08:20:38;;;;;;;0.20;0.20;;;;;;;-7.60;100.00;97447.78;6139262;23;20029;-73
2024/01/10 08:23:24;;;;;;;0.30;0.30;;;;;;;-7.55;100.00;97443.06;6138525;23;20021;-73
2024/01/10 08:26:10;;;;;;;0.20;0.20;;;;;;;-7.47;100.00;97439.91;6139582;23;20026;-74
2024/01/10 08:28:56;;;;;;;0.20;0.20;;;;;;;-7.57;100.00;97439.75;6137799;23;20104;-75
2024/01/10 08:31:42;;;;;;;0.20;0.20;;;;;;;-7.41;100.00;97444.66;6138254;23;20715;-75
2024/01/10 08:34:28;;;;;;;0.20;0.20;;;;;;;-7.33;100.00;97456.13;6138477;23;20333;-76
2024/01/10 08:37:13;;;;;;;0.20;0.20;;;;;;;-7.27;100.00;97452.25;6139505;23;20017;-73
2024/01/10 08:40:01;;;;;;;0.20;0.20;;;;;;;-7.22;100.00;97449.34;6140082;23;20025;-74
2024/01/10 08:42:47;;;;;;;0.20;0.20;;;;;;;-7.10;100.00;97448.41;6138551;23;20040;-76
2024/01/10 08:45:32;;;;;;;0.20;0.20;;;;;;;-7.01;100.00;97448.53;6140918;23;20018;-76
2024/01/10 08:48:18;;;;;;;0.20;0.20;;;;;;;-6.86;100.00;97451.75;6138325;23;20040;-76
2024/01/10 08:51:04;;;;;;;0.20;0.20;;;;;;;-6.71;100.00;97448.94;6139599;23;20029;-78
2024/01/10 08:53:50;;;;;;;0.20;0.20;;;;;;;-6.56;100.00;97451.19;6138913;23;20028;-76
2024/01/10 08:56:36;;;;;;;0.20;0.20;;;;;;;-6.37;100.00;97452.41;6137333;23;20080;-76
2024/01/10 08:59:22;;;;;;;0.28;0.28;;;;;;;-6.44;100.00;97440.81;6138575;23;20108;-76
2024/01/10 09:02:08;;;;;;;0.20;0.20;;;;;;;-6.39;100.00;97447.28;6138387;23;20104;-76
2024/01/10 09:04:54;;;;;;;0.20;0.20;;;;;;;-6.35;100.00;97450.50;6139056;23;20100;-75
2024/01/10 09:07:42;;;;;;;0.20;0.20;;;;;;;-6.37;100.00;97453.22;6137820;23;20021;-77
2024/01/10 09:10:27;;;;;;;0.20;0.20;;;;;;;-6.19;100.00;97454.38;6137742;23;20075;-76
2024/01/10 09:13:13;;;;;;;0.20;0.20;;;;;;;-6.20;100.00;97452.75;6137559;23;20105;-76
2024/01/10 09:15:59;;;;;;;0.20;0.20;;;;;;;-6.08;100.00;97452.72;6139551;23;20025;-76
2024/01/10 09:18:45;;;;;;;0.20;0.20;;;;;;;-6.08;100.00;97455.31;6139900;23;20105;-76
2024/01/10 09:21:31;;;;;;;0.20;0.20;;;;;;;-6.08;100.00;97458.75;6095250;23;20033;-76
2024/01/10 09:24:17;;;;;;;0.20;0.20;;;;;;;-5.87;100.00;97456.19;6138946;23;20022;-77
2024/01/10 09:27:03;;;;;;;0.20;0.20;;;;;;;-5.84;100.00;97453.34;6139200;23;20033;-76
2024/01/10 09:29:49;;;;;;;0.20;0.20;;;;;;;-5.67;100.00;97452.84;6140528;23;20025;-77
2024/01/10 09:32:35;;;;;;;0.20;0.20;;;;;;;-5.59;100.00;97451.41;6138258;23;20211;-77
2024/01/10 09:35:21;;;;;;;0.20;0.20;;;;;;;-5.62;100.00;97458.50;6138758;23;20033;-77
2024/01/10 09:38:06;;;;;;;0.20;0.20;;;;;;;-5.59;100.00;97462.66;6138669;23;20021;-77
2024/01/10 09:41:01;;;;;;;0.28;0.28;;;;;;;-5.46;100.00;97452.88;6140028;23;20095;-76
2024/01/10 09:43:47;;;;;;;0.20;0.20;;;;;;;-5.62;100.00;97455.88;6137571;23;20024;-77
2024/01/10 09:46:35;;;;;;;0.20;0.20;;;;;;;-5.63;100.00;97469.88;6139695;23;20665;-76
2024/01/10 09:49:21;;;;;;;0.20;0.20;;;;;;;-5.69;100.00;97454.72;6139095;23;20048;-76
2024/01/10 09:52:10;;;;;;;0.20;0.20;;;;;;;-5.31;100.00;97461.22;6136913;23;20029;-76
2024/01/10 09:54:57;;;;;;;0.20;0.20;;;;;;;-5.29;100.00;97466.31;6140309;23;20153;-77
2024/01/10 09:57:43;;;;;;;0.20;0.20;;;;;;;-5.24;100.00;97458.94;6139649;23;20024;-77
2024/01/10 10:00:29;;;;;;;0.20;0.20;;;;;;;-4.95;98.98;97464.38;6138619;23;20025;-76
2024/01/10 10:03:17;;;;;;;0.20;0.20;;;;;;;-5.02;99.13;97450.19;6139998;23;20029;-77
2024/01/10 10:06:04;;;;;;;0.20;0.20;;;;;;;-4.82;98.03;97468.47;6140491;23;20032;-76
2024/01/10 10:08:50;;;;;;;2.00;0.80;;;;;;;-4.63;97.11;97456.47;6137573;23;20017;-76
2024/01/10 10:11:36;;;;;;;0.20;0.20;;;;;;;-3.96;95.21;97459.34;6139351;23;20029;-76
2024/01/10 10:14:22;;;;;;;0.30;0.30;;;;;;;-3.15;87.42;97456.56;6140534;23;20021;-78
2024/01/10 10:17:17;;;;;;;0.20;0.20;;;;;;;-2.79;78.92;97449.75;6139629;23;20021;-77
2024/01/10 10:20:04;;;;;;;0.20;0.20;;;;;;;-2.25;73.76;97449.06;6139057;23;20033;-77
2024/01/10 10:23:06;;;;;;;0.30;0.30;;;;;;;-1.91;68.86;97443.22;6135862;23;20029;-77
2024/01/10 10:25:52;;;;;;;0.20;0.20;;;;;;;-1.48;64.31;97441.69;6140090;23;20049;-77
2024/01/10 10:28:39;;;;;;;0.20;0.20;;;;;;;-0.61;59.06;97436.53;6139254;23;20084;-76
2024/01/10 10:31:25;;;;;;;0.40;0.40;;;;;;;1.82;49.34;97429.19;6138208;23;20100;-77
2024/01/10 10:34:11;;;;;;;0.30;0.30;;;;;;;3.74;43.62;97424.75;6140040;23;20025;-78
2024/01/10 10:36:57;;;;;;;0.30;0.30;;;;;;;5.77;40.41;97414.81;6139135;23;20084;-77
2024/01/10 10:39:42;;;;;;;0.22;0.22;;;;;;;4.53;37.69;97422.31;6137571;23;20021;-78
2024/01/10 10:42:30;;;;;;;0.30;0.30;;;;;;;3.78;38.85;97422.56;6137592;23;20031;-78
2024/01/10 10:45:17;;;;;;;0.20;0.20;;;;;;;2.61;40.36;97423.88;6140091;23;20113;-77
2024/01/10 10:48:06;;;;;;;0.20;0.20;;;;;;;1.76;42.83;97414.03;6139816;23;20026;-78
2024/01/10 10:51:06;;;;;;;0.20;0.20;;;;;;;1.08;43.55;97433.75;6139455;23;20036;-77
2024/01/10 10:53:53;;;;;;;0.22;0.22;;;;;;;0.88;44.35;97440.34;6139517;23;20124;-77
2024/01/10 10:56:40;;;;;;;0.20;0.20;;;;;;;1.25;43.17;97421.41;6137570;23;20096;-79
2024/01/10 10:59:27;;;;;;;0.30;0.30;;;;;;;2.02;41.46;97426.97;6141457;23;20156;-78
2024/01/10 11:02:20;;;;;;;0.30;0.30;;;;;;;2.23;41.60;97426.38;6139083;23;20025;-77
2024/01/10 11:05:08;;;;;;;0.30;0.30;;;;;;;2.00;40.74;97414.94;6139556;23;20026;-78
2024/01/10 11:07:56;;;;;;;0.20;0.20;;;;;;;1.07;43.26;97407.56;6138868;23;20026;-76
2024/01/10 11:10:46;;;;;;;0.30;0.30;;;;;;;1.60;43.57;97419.34;6139694;23;20033;-77
2024/01/10 11:14:01;;;;;;;0.20;0.20;;;;;;;0.88;43.07;97415.81;6139277;23;20100;-76
2024/01/10 11:17:25;;;;;;;0.20;0.20;;;;;;;0.30;44.81;97409.63;6138388;23;20044;-76
2024/01/10 11:20:36;;;;;;;0.30;0.30;;;;;;;0.93;44.05;97400.31;6139574;23;20655;-76
2024/01/10 11:23:22;;;;;;;0.20;0.20;;;;;;;0.45;45.03;97401.91;6138745;23;20105;-77
2024/01/10 11:26:08;;;;;;;0.20;0.20;;;;;;;0.03;46.89;97407.25;6139328;23;20617;-75
2024/01/10 11:28:57;;;;;;;0.20;0.20;;;;;;;-0.15;47.88;97413.44;6139404;23;20100;-75
2024/01/10 11:31:50;;;;;;;0.20;0.20;;;;;;;-0.96;51.57;97407.69;6138482;23;20066;-76
2024/01/10 11:34:36;;;;;;;0.17;0.17;;;;;;;-1.80;53.84;97394.94;6139660;23;20025;-76
2024/01/10 11:37:22;;;;;;;0.20;0.20;;;;;;;-2.31;57.05;97406.84;6120868;23;20537;-78
2024/01/10 11:40:09;;;;;;;0.20;0.20;;;;;;;-2.20;59.69;97406.66;6138160;23;20707;-76
2024/01/10 11:42:58;;;;;;;0.20;0.20;;;;;;;-2.39;61.41;97419.84;6136609;23;20030;-76
2024/01/10 11:45:53;;;;;;;0.20;0.20;;;;;;;-2.93;66.79;97416.16;6136879;23;20812;-76
2024/01/10 11:48:39;;;;;;;0.20;0.20;;;;;;;-2.90;66.98;97416.69;6137216;23;20281;-76
2024/01/10 11:51:25;;;;;;;0.20;0.20;;;;;;;-3.02;70.06;97409.13;6138468;23;20542;-77
2024/01/10 11:54:11;;;;;;;0.20;0.20;;;;;;;-3.02;69.69;97415.19;6138138;23;20492;-77
2024/01/10 11:56:57;;;;;;;0.28;0.28;;;;;;;-2.38;67.20;97413.63;6137456;23;20025;-75
2024/01/10 11:59:45;;;;;;;0.20;0.20;;;;;;;-2.37;64.67;97410.03;6136874;23;20034;-76
2024/01/10 12:02:32;;;;;;;0.20;0.20;;;;;;;-2.17;63.88;97406.38;6135996;23;20105;-76
2024/01/10 12:05:18;;;;;;;0.20;0.20;;;;;;;-1.98;62.99;97401.00;6137614;23;20124;-76
2024/01/10 12:08:10;;;;;;;0.20;0.20;;;;;;;-1.52;61.69;97422.81;6137818;23;20027;-77
2024/01/10 12:11:05;;;;;;;0.20;0.20;;;;;;;-1.91;64.29;97416.16;6140615;23;20021;-76
2024/01/10 12:13:51;;;;;;;0.30;0.30;;;;;;;-2.15;64.27;97414.09;6138615;23;20025;-76
2024/01/10 12:16:38;;;;;;;0.20;0.20;;;;;;;-1.99;63.35;97407.22;6137446;23;20028;-77
2024/01/10 12:19:24;;;;;;;0.20;0.20;;;;;;;-2.09;63.51;97410.88;6138720;23;20134;-75
2024/01/10 12:22:10;;;;;;;0.20;0.20;;;;;;;-2.63;68.71;97407.25;6137317;23;20030;-76
2024/01/10 12:24:56;;;;;;;0.10;0.10;;;;;;;-2.47;69.29;97412.72;6138681;23;20025;-76
2024/01/10 12:27:42;;;;;;;0.30;0.30;;;;;;;-2.57;71.94;97407.50;6137258;23;20028;-75
2024/01/10 12:30:27;;;;;;;0.20;0.20;;;;;;;-2.88;75.46;97413.91;6136605;23;20048;-76
2024/01/10 12:33:14;;;;;;;0.20;0.20;;;;;;;-2.95;78.26;97410.22;6137783;23;20509;-76
2024/01/10 12:36:12;;;;;;;0.20;0.20;;;;;;;-2.93;77.35;97416.16;6137039;23;20916;-76
2024/01/10 12:38:58;;;;;;;0.20;0.20;;;;;;;-2.91;75.03;97404.53;6097816;23;20322;-77
2024/01/10 12:41:45;;;;;;;0.20;0.20;;;;;;;-2.73;77.28;97416.91;6135376;23;20092;-75
2024/01/10 12:44:31;;;;;;;0.30;0.30;;;;;;;-2.62;73.70;97412.34;6137196;23;20626;-76
2024/01/10 12:47:21;;;;;;;0.15;0.15;;;;;;;-2.95;76.59;97405.00;6137440;23;20021;-76
2024/01/10 12:50:07;;;;;;;0.20;0.20;;;;;;;-3.36;81.26;97404.31;6137898;23;20100;-76
2024/01/10 12:52:53;;;;;;;0.20;0.20;;;;;;;-3.20;81.38;97415.06;6137862;23;20022;-76
2024/01/10 12:55:39;;;;;;;0.20;0.20;;;;;;;-3.13;82.30;97410.09;6138139;23;20411;-77
2024/01/10 12:58:25;;;;;;;0.22;0.22;;;;;;;-2.63;78.65;97408.06;6137058;23;20025;-76
2024/01/10 13:01:11;;;;;;;0.20;0.20;;;;;;;-2.70;80.88;97401.75;6138156;23;20618;-76
2024/01/10 13:03:58;;;;;;;0.20;0.20;;;;;;;-2.86;79.10;97399.72;6140483;23;20139;-77